sensor_id;sensor_type;location;lat;lon;timestamp;P1;durP1;ratioP1;P2;durP2;ratioP2
9942;SDS011;5010;45.080;7.634;2024-03-06T00:02:24;4.85;;;2.17;;
9942;SDS011;5010;45.080;7.634;2024-03-06T00:04:51;4.45;;;1.85;;
9942;SDS011;5010;45.080;7.634;2024-03-06T00:07:21;3.60;;;1.60;;
9942;SDS011;5010;45.080;7.634;2024-03-06T00:09:48;9.82;;;1.80;;
9942;SDS011;5010;45.080;7.634;2024-03-06T00:12:15;3.92;;;1.95;;
9942;SDS011;5010;45.080;7.634;2024-03-06T00:14:43;4.10;;;1.83;;
9942;SDS011;5010;45.080;7.634;2024-03-06T00:17:11;4.60;;;1.58;;
9942;SDS011;5010;45.080;7.634;2024-03-06T00:19:38;3.72;;;1.50;;
9942;SDS011;5010;45.080;7.634;2024-03-06T00:22:06;3.85;;;2.05;;
9942;SDS011;5010;45.080;7.634;2024-03-06T00:24:35;3.20;;;1.40;;
9942;SDS011;5010;45.080;7.634;2024-03-06T00:27:02;3.00;;;1.38;;
9942;SDS011;5010;45.080;7.634;2024-03-06T00:29:31;3.33;;;1.45;;
9942;SDS011;5010;45.080;7.634;2024-03-06T00:31:58;3.60;;;1.50;;
9942;SDS011;5010;45.080;7.634;2024-03-06T00:34:26;3.10;;;1.38;;
9942;SDS011;5010;45.080;7.634;2024-03-06T00:36:54;3.50;;;1.73;;
9942;SDS011;5010;45.080;7.634;2024-03-06T00:39:22;2.88;;;1.23;;
9942;SDS011;5010;45.080;7.634;2024-03-06T00:41:51;3.08;;;1.50;;
9942;SDS011;5010;45.080;7.634;2024-03-06T00:44:18;2.90;;;1.13;;
9942;SDS011;5010;45.080;7.634;2024-03-06T00:46:46;3.00;;;1.20;;
9942;SDS011;5010;45.080;7.634;2024-03-06T00:49:14;3.10;;;1.40;;
9942;SDS011;5010;45.080;7.634;2024-03-06T00:51:41;3.42;;;1.23;;
9942;SDS011;5010;45.080;7.634;2024-03-06T00:54:09;2.90;;;1.20;;
9942;SDS011;5010;45.080;7.634;2024-03-06T00:56:37;6.22;;;1.70;;
9942;SDS011;5010;45.080;7.634;2024-03-06T00:59:06;4.03;;;2.03;;
9942;SDS011;5010;45.080;7.634;2024-03-06T01:01:34;3.25;;;1.30;;
9942;SDS011;5010;45.080;7.634;2024-03-06T01:04:01;2.95;;;1.25;;
9942;SDS011;5010;45.080;7.634;2024-03-06T01:06:29;3.10;;;1.25;;
9942;SDS011;5010;45.080;7.634;2024-03-06T01:08:56;3.67;;;1.30;;
9942;SDS011;5010;45.080;7.634;2024-03-06T01:11:24;5.25;;;1.60;;
9942;SDS011;5010;45.080;7.634;2024-03-06T01:13:52;4.40;;;1.70;;
9942;SDS011;5010;45.080;7.634;2024-03-06T01:16:21;2.90;;;1.02;;
9942;SDS011;5010;45.080;7.634;2024-03-06T01:18:48;3.75;;;1.35;;
9942;SDS011;5010;45.080;7.634;2024-03-06T01:21:16;3.40;;;1.40;;
9942;SDS011;5010;45.080;7.634;2024-03-06T01:23:43;3.50;;;1.80;;
9942;SDS011;5010;45.080;7.634;2024-03-06T01:26:11;2.80;;;1.08;;
9942;SDS011;5010;45.080;7.634;2024-03-06T01:28:38;3.67;;;1.30;;
9942;SDS011;5010;45.080;7.634;2024-03-06T01:31:05;2.85;;;1.15;;
9942;SDS011;5010;45.080;7.634;2024-03-06T01:33:35;3.20;;;1.50;;
9942;SDS011;5010;45.080;7.634;2024-03-06T01:36:02;4.40;;;1.55;;
9942;SDS011;5010;45.080;7.634;2024-03-06T01:38:30;3.65;;;1.50;;
9942;SDS011;5010;45.080;7.634;2024-03-06T01:40:57;4.28;;;1.63;;
9942;SDS011;5010;45.080;7.634;2024-03-06T01:43:25;3.40;;;1.40;;
9942;SDS011;5010;45.080;7.634;2024-03-06T01:45:53;3.20;;;1.40;;
9942;SDS011;5010;45.080;7.634;2024-03-06T01:48:21;4.65;;;1.58;;
9942;SDS011;5010;45.080;7.634;2024-03-06T01:50:57;3.33;;;1.40;;
9942;SDS011;5010;45.080;7.634;2024-03-06T01:53:27;3.50;;;1.40;;
9942;SDS011;5010;45.080;7.634;2024-03-06T01:55:58;3.35;;;1.60;;
9942;SDS011;5010;45.080;7.634;2024-03-06T01:58:26;3.05;;;1.27;;
9942;SDS011;5010;45.080;7.634;2024-03-06T02:00:56;4.30;;;1.90;;
9942;SDS011;5010;45.080;7.634;2024-03-06T02:03:24;4.22;;;1.48;;
9942;SDS011;5010;45.080;7.634;2024-03-06T02:05:52;3.20;;;1.40;;
9942;SDS011;5010;45.080;7.634;2024-03-06T02:08:22;3.40;;;1.52;;
9942;SDS011;5010;45.080;7.634;2024-03-06T02:10:49;3.88;;;1.80;;
9942;SDS011;5010;45.080;7.634;2024-03-06T02:13:17;3.20;;;1.58;;
9942;SDS011;5010;45.080;7.634;2024-03-06T02:15:44;3.33;;;1.48;;
9942;SDS011;5010;45.080;7.634;2024-03-06T02:18:12;3.20;;;1.70;;
9942;SDS011;5010;45.080;7.634;2024-03-06T02:20:41;4.22;;;1.92;;
9942;SDS011;5010;45.080;7.634;2024-03-06T02:23:08;3.67;;;1.50;;
9942;SDS011;5010;45.080;7.634;2024-03-06T02:25:36;3.97;;;2.00;;
9942;SDS011;5010;45.080;7.634;2024-03-06T02:28:03;3.95;;;2.08;;
9942;SDS011;5010;45.080;7.634;2024-03-06T02:30:32;3.55;;;1.70;;
9942;SDS011;5010;45.080;7.634;2024-03-06T02:33:02;4.68;;;1.50;;
9942;SDS011;5010;45.080;7.634;2024-03-06T02:35:31;3.05;;;1.52;;
9942;SDS011;5010;45.080;7.634;2024-03-06T02:38:00;4.97;;;2.13;;
9942;SDS011;5010;45.080;7.634;2024-03-06T02:40:28;4.07;;;1.77;;
9942;SDS011;5010;45.080;7.634;2024-03-06T02:42:55;3.10;;;1.30;;
9942;SDS011;5010;45.080;7.634;2024-03-06T02:45:23;3.28;;;1.75;;
9942;SDS011;5010;45.080;7.634;2024-03-06T02:47:50;5.78;;;1.73;;
9942;SDS011;5010;45.080;7.634;2024-03-06T02:50:18;3.47;;;1.77;;
9942;SDS011;5010;45.080;7.634;2024-03-06T02:52:46;3.38;;;1.80;;
9942;SDS011;5010;45.080;7.634;2024-03-06T02:55:15;4.22;;;2.28;;
9942;SDS011;5010;45.080;7.634;2024-03-06T02:57:42;3.72;;;1.92;;
9942;SDS011;5010;45.080;7.634;2024-03-06T03:00:10;4.40;;;1.75;;
9942;SDS011;5010;45.080;7.634;2024-03-06T03:02:39;5.05;;;2.58;;
9942;SDS011;5010;45.080;7.634;2024-03-06T03:05:06;3.85;;;2.58;;
9942;SDS011;5010;45.080;7.634;2024-03-06T03:07:34;4.85;;;1.92;;
9942;SDS011;5010;45.080;7.634;2024-03-06T03:10:02;3.80;;;2.03;;
9942;SDS011;5010;45.080;7.634;2024-03-06T03:12:33;3.70;;;2.25;;
9942;SDS011;5010;45.080;7.634;2024-03-06T03:15:00;3.67;;;1.65;;
9942;SDS011;5010;45.080;7.634;2024-03-06T03:17:28;4.43;;;2.22;;
9942;SDS011;5010;45.080;7.634;2024-03-06T03:19:55;5.95;;;2.20;;
9942;SDS011;5010;45.080;7.634;2024-03-06T03:22:23;3.30;;;1.70;;
9942;SDS011;5010;45.080;7.634;2024-03-06T03:24:50;4.70;;;1.95;;
9942;SDS011;5010;45.080;7.634;2024-03-06T03:27:18;3.80;;;1.80;;
9942;SDS011;5010;45.080;7.634;2024-03-06T03:29:47;4.57;;;2.17;;
9942;SDS011;5010;45.080;7.634;2024-03-06T03:32:14;5.38;;;2.75;;
9942;SDS011;5010;45.080;7.634;2024-03-06T03:34:42;3.78;;;1.77;;
9942;SDS011;5010;45.080;7.634;2024-03-06T03:37:09;3.53;;;1.70;;
9942;SDS011;5010;45.080;7.634;2024-03-06T03:39:37;3.60;;;2.00;;
9942;SDS011;5010;45.080;7.634;2024-03-06T03:42:05;8.82;;;2.00;;
9942;SDS011;5010;45.080;7.634;2024-03-06T03:44:32;4.95;;;2.05;;
9942;SDS011;5010;45.080;7.634;2024-03-06T03:47:02;4.22;;;1.90;;
9942;SDS011;5010;45.080;7.634;2024-03-06T03:49:29;3.88;;;2.10;;
9942;SDS011;5010;45.080;7.634;2024-03-06T03:51:56;3.65;;;1.63;;
9942;SDS011;5010;45.080;7.634;2024-03-06T03:54:24;3.70;;;2.00;;
9942;SDS011;5010;45.080;7.634;2024-03-06T03:56:51;3.38;;;1.70;;
9942;SDS011;5010;45.080;7.634;2024-03-06T03:59:19;5.85;;;2.22;;
9942;SDS011;5010;45.080;7.634;2024-03-06T04:01:46;4.13;;;1.90;;
9942;SDS011;5010;45.080;7.634;2024-03-06T04:04:15;4.05;;;1.70;;
9942;SDS011;5010;45.080;7.634;2024-03-06T04:06:43;6.80;;;2.10;;
9942;SDS011;5010;45.080;7.634;2024-03-06T04:09:10;3.53;;;1.58;;
9942;SDS011;5010;45.080;7.634;2024-03-06T04:11:40;4.65;;;2.13;;
9942;SDS011;5010;45.080;7.634;2024-03-06T04:14:07;5.10;;;1.70;;
9942;SDS011;5010;45.080;7.634;2024-03-06T04:16:35;3.42;;;1.83;;
9942;SDS011;5010;45.080;7.634;2024-03-06T04:19:03;3.30;;;1.50;;
9942;SDS011;5010;45.080;7.634;2024-03-06T04:21:32;4.70;;;1.50;;
9942;SDS011;5010;45.080;7.634;2024-03-06T04:24:00;4.68;;;1.55;;
9942;SDS011;5010;45.080;7.634;2024-03-06T04:26:27;4.30;;;1.48;;
9942;SDS011;5010;45.080;7.634;2024-03-06T04:28:55;3.20;;;1.35;;
9942;SDS011;5010;45.080;7.634;2024-03-06T04:31:23;6.05;;;1.50;;
9942;SDS011;5010;45.080;7.634;2024-03-06T04:33:50;3.50;;;1.58;;
9942;SDS011;5010;45.080;7.634;2024-03-06T04:36:18;4.90;;;2.05;;
9942;SDS011;5010;45.080;7.634;2024-03-06T04:38:47;6.97;;;1.80;;
9942;SDS011;5010;45.080;7.634;2024-03-06T04:41:14;6.68;;;1.73;;
9942;SDS011;5010;45.080;7.634;2024-03-06T04:43:44;3.00;;;1.30;;
9942;SDS011;5010;45.080;7.634;2024-03-06T04:46:12;3.67;;;1.73;;
9942;SDS011;5010;45.080;7.634;2024-03-06T04:48:40;2.80;;;1.17;;
9942;SDS011;5010;45.080;7.634;2024-03-06T04:51:07;3.15;;;1.55;;
9942;SDS011;5010;45.080;7.634;2024-03-06T04:53:35;3.38;;;1.52;;
9942;SDS011;5010;45.080;7.634;2024-03-06T04:56:05;3.10;;;1.27;;
9942;SDS011;5010;45.080;7.634;2024-03-06T04:58:32;3.95;;;1.48;;
9942;SDS011;5010;45.080;7.634;2024-03-06T05:01:00;3.00;;;1.30;;
9942;SDS011;5010;45.080;7.634;2024-03-06T07:40:23;3.33;;;1.50;;
9942;SDS011;5010;45.080;7.634;2024-03-06T07:42:51;3.50;;;1.50;;
9942;SDS011;5010;45.080;7.634;2024-03-06T08:51:26;4.10;;;1.60;;
9942;SDS011;5010;45.080;7.634;2024-03-06T08:56:56;3.10;;;1.40;;
9942;SDS011;5010;45.080;7.634;2024-03-06T08:59:24;3.55;;;1.30;;
9942;SDS011;5010;45.080;7.634;2024-03-06T09:01:52;6.25;;;1.98;;
9942;SDS011;5010;45.080;7.634;2024-03-06T09:34:39;60.03;;;12.07;;
9942;SDS011;5010;45.080;7.634;2024-03-06T09:37:07;72.50;;;46.80;;
9942;SDS011;5010;45.080;7.634;2024-03-06T09:39:35;71.70;;;29.05;;
9942;SDS011;5010;45.080;7.634;2024-03-06T09:42:03;60.30;;;18.05;;
9942;SDS011;5010;45.080;7.634;2024-03-06T09:44:30;31.70;;;2.40;;
9942;SDS011;5010;45.080;7.634;2024-03-06T09:46:59;22.88;;;2.65;;
9942;SDS011;5010;45.080;7.634;2024-03-06T11:38:19;71.50;;;27.13;;
9942;SDS011;5010;45.080;7.634;2024-03-06T11:40:49;89.68;;;57.22;;
9942;SDS011;5010;45.080;7.634;2024-03-06T11:43:22;262.05;;;249.52;;
9942;SDS011;5010;45.080;7.634;2024-03-06T11:45:52;94.78;;;27.00;;
9942;SDS011;5010;45.080;7.634;2024-03-06T11:48:19;512.38;;;487.92;;
9942;SDS011;5010;45.080;7.634;2024-03-06T11:50:48;295.67;;;281.55;;
9942;SDS011;5010;45.080;7.634;2024-03-06T11:53:20;560.70;;;533.95;;
9942;SDS011;5010;45.080;7.634;2024-03-06T11:55:48;515.67;;;491.08;;
9942;SDS011;5010;45.080;7.634;2024-03-06T11:58:17;528.17;;;502.95;;
9942;SDS011;5010;45.080;7.634;2024-03-06T12:00:46;184.95;;;176.07;;
9942;SDS011;5010;45.080;7.634;2024-03-06T12:03:14;196.02;;;186.65;;
9942;SDS011;5010;45.080;7.634;2024-03-06T12:05:43;127.38;;;99.45;;
9942;SDS011;5010;45.080;7.634;2024-03-06T12:08:12;168.75;;;158.20;;
9942;SDS011;5010;45.080;7.634;2024-03-06T12:10:41;349.30;;;332.63;;
9942;SDS011;5010;45.080;7.634;2024-03-06T12:13:09;125.60;;;96.28;;
9942;SDS011;5010;45.080;7.634;2024-03-06T12:15:37;100.35;;;40.15;;
9942;SDS011;5010;45.080;7.634;2024-03-06T12:18:05;87.25;;;18.40;;
9942;SDS011;5010;45.080;7.634;2024-03-06T12:20:32;207.43;;;197.48;;
9942;SDS011;5010;45.080;7.634;2024-03-06T12:23:01;103.18;;;46.97;;
9942;SDS011;5010;45.080;7.634;2024-03-06T12:25:29;93.47;;;31.17;;
9942;SDS011;5010;45.080;7.634;2024-03-06T12:28:06;115.00;;;70.25;;
9942;SDS011;5010;45.080;7.634;2024-03-06T12:30:40;138.90;;;131.68;;
9942;SDS011;5010;45.080;7.634;2024-03-06T12:33:09;101.50;;;45.70;;
9942;SDS011;5010;45.080;7.634;2024-03-06T12:35:40;93.72;;;25.42;;
9942;SDS011;5010;45.080;7.634;2024-03-06T12:38:14;89.93;;;17.15;;
9942;SDS011;5010;45.080;7.634;2024-03-06T12:40:42;91.00;;;20.33;;
9942;SDS011;5010;45.080;7.634;2024-03-06T12:43:11;118.07;;;64.95;;
9942;SDS011;5010;45.080;7.634;2024-03-06T12:45:40;131.43;;;91.03;;
9942;SDS011;5010;45.080;7.634;2024-03-06T12:48:08;93.18;;;25.73;;
9942;SDS011;5010;45.080;7.634;2024-03-06T12:50:36;94.72;;;30.08;;
9942;SDS011;5010;45.080;7.634;2024-03-06T12:53:03;94.07;;;26.30;;
9942;SDS011;5010;45.080;7.634;2024-03-06T12:55:31;104.15;;;47.42;;
9942;SDS011;5010;45.080;7.634;2024-03-06T12:57:59;229.13;;;218.15;;
9942;SDS011;5010;45.080;7.634;2024-03-06T13:00:29;138.60;;;128.02;;
9942;SDS011;5010;45.080;7.634;2024-03-06T13:02:57;349.42;;;332.75;;
9942;SDS011;5010;45.080;7.634;2024-03-06T13:05:24;134.45;;;123.05;;
9942;SDS011;5010;45.080;7.634;2024-03-06T13:07:52;107.82;;;54.88;;
9942;SDS011;5010;45.080;7.634;2024-03-06T13:10:20;107.03;;;51.30;;
9942;SDS011;5010;45.080;7.634;2024-03-06T13:12:48;126.90;;;103.68;;
9942;SDS011;5010;45.080;7.634;2024-03-06T13:15:16;321.95;;;306.58;;
9942;SDS011;5010;45.080;7.634;2024-03-06T13:17:45;115.20;;;73.03;;
9942;SDS011;5010;45.080;7.634;2024-03-06T13:20:13;118.88;;;88.05;;
9942;SDS011;5010;45.080;7.634;2024-03-06T13:22:41;124.93;;;87.57;;
9942;SDS011;5010;45.080;7.634;2024-03-06T13:25:09;154.80;;;147.38;;
9942;SDS011;5010;45.080;7.634;2024-03-06T13:27:37;136.85;;;105.38;;
9942;SDS011;5010;45.080;7.634;2024-03-06T13:30:05;452.00;;;430.42;;
9942;SDS011;5010;45.080;7.634;2024-03-06T13:32:34;324.20;;;308.70;;
9942;SDS011;5010;45.080;7.634;2024-03-06T13:35:04;112.95;;;70.90;;
9942;SDS011;5010;45.080;7.634;2024-03-06T13:37:37;113.65;;;66.13;;
9942;SDS011;5010;45.080;7.634;2024-03-06T13:40:05;114.85;;;70.22;;
9942;SDS011;5010;45.080;7.634;2024-03-06T13:42:38;130.80;;;108.32;;
9942;SDS011;5010;45.080;7.634;2024-03-06T13:45:06;110.13;;;49.45;;
9942;SDS011;5010;45.080;7.634;2024-03-06T13:47:37;103.28;;;37.00;;
9942;SDS011;5010;45.080;7.634;2024-03-06T13:50:08;154.40;;;140.75;;
9942;SDS011;5010;45.080;7.634;2024-03-06T13:52:37;121.25;;;73.65;;
9942;SDS011;5010;45.080;7.634;2024-03-06T13:55:05;116.45;;;73.18;;
9942;SDS011;5010;45.080;7.634;2024-03-06T13:57:34;125.90;;;82.45;;
9942;SDS011;5010;45.080;7.634;2024-03-06T14:00:03;138.90;;;130.00;;
9942;SDS011;5010;45.080;7.634;2024-03-06T14:02:32;118.60;;;83.75;;
9942;SDS011;5010;45.080;7.634;2024-03-06T14:04:59;120.45;;;91.65;;
9942;SDS011;5010;45.080;7.634;2024-03-06T14:07:29;124.05;;;80.53;;
9942;SDS011;5010;45.080;7.634;2024-03-06T14:09:56;129.10;;;95.30;;
9942;SDS011;5010;45.080;7.634;2024-03-06T14:12:24;118.50;;;86.93;;
9942;SDS011;5010;45.080;7.634;2024-03-06T14:14:52;111.43;;;62.35;;
9942;SDS011;5010;45.080;7.634;2024-03-06T14:17:20;111.32;;;62.08;;
9942;SDS011;5010;45.080;7.634;2024-03-06T14:19:47;112.93;;;56.17;;
9942;SDS011;5010;45.080;7.634;2024-03-06T14:22:15;108.00;;;51.22;;
9942;SDS011;5010;45.080;7.634;2024-03-06T14:24:44;115.35;;;67.75;;
9942;SDS011;5010;45.080;7.634;2024-03-06T14:27:12;107.78;;;48.80;;
9942;SDS011;5010;45.080;7.634;2024-03-06T14:29:40;110.78;;;61.95;;
9942;SDS011;5010;45.080;7.634;2024-03-06T14:32:08;107.30;;;46.97;;
9942;SDS011;5010;45.080;7.634;2024-03-06T14:34:35;108.20;;;52.60;;
9942;SDS011;5010;45.080;7.634;2024-03-06T14:37:03;111.50;;;54.42;;
9942;SDS011;5010;45.080;7.634;2024-03-06T14:39:31;106.45;;;48.65;;
9942;SDS011;5010;45.080;7.634;2024-03-06T14:42:01;180.38;;;171.75;;
9942;SDS011;5010;45.080;7.634;2024-03-06T14:44:29;104.88;;;37.08;;
9942;SDS011;5010;45.080;7.634;2024-03-06T14:46:57;132.68;;;97.10;;
9942;SDS011;5010;45.080;7.634;2024-03-06T14:49:25;180.15;;;166.38;;
9942;SDS011;5010;45.080;7.634;2024-03-06T14:51:52;125.63;;;91.07;;
9942;SDS011;5010;45.080;7.634;2024-03-06T14:54:20;126.57;;;86.35;;
9942;SDS011;5010;45.080;7.634;2024-03-06T14:56:51;109.43;;;52.60;;
9942;SDS011;5010;45.080;7.634;2024-03-06T14:59:20;138.43;;;109.40;;
9942;SDS011;5010;45.080;7.634;2024-03-06T15:01:48;210.98;;;200.88;;
9942;SDS011;5010;45.080;7.634;2024-03-06T15:04:16;118.72;;;68.97;;
9942;SDS011;5010;45.080;7.634;2024-03-06T15:06:45;126.55;;;76.57;;
9942;SDS011;5010;45.080;7.634;2024-03-06T15:09:13;112.55;;;54.80;;
9942;SDS011;5010;45.080;7.634;2024-03-06T15:11:47;147.98;;;124.60;;
9942;SDS011;5010;45.080;7.634;2024-03-06T15:14:17;113.22;;;60.45;;
9942;SDS011;5010;45.080;7.634;2024-03-06T15:16:47;111.40;;;56.08;;
9942;SDS011;5010;45.080;7.634;2024-03-06T15:19:14;109.90;;;49.72;;
9942;SDS011;5010;45.080;7.634;2024-03-06T15:21:42;114.22;;;61.05;;
9942;SDS011;5010;45.080;7.634;2024-03-06T15:24:11;119.78;;;63.03;;
9942;SDS011;5010;45.080;7.634;2024-03-06T15:26:38;110.75;;;50.30;;
9942;SDS011;5010;45.080;7.634;2024-03-06T15:29:06;120.55;;;67.90;;
9942;SDS011;5010;45.080;7.634;2024-03-06T15:31:35;127.20;;;85.35;;
9942;SDS011;5010;45.080;7.634;2024-03-06T15:34:04;110.05;;;47.97;;
9942;SDS011;5010;45.080;7.634;2024-03-06T15:36:32;134.77;;;104.60;;
9942;SDS011;5010;45.080;7.634;2024-03-06T15:38:59;140.63;;;126.50;;
9942;SDS011;5010;45.080;7.634;2024-03-06T15:41:27;125.78;;;77.57;;
9942;SDS011;5010;45.080;7.634;2024-03-06T15:43:55;114.63;;;64.20;;
9942;SDS011;5010;45.080;7.634;2024-03-06T15:46:23;114.35;;;63.55;;
9942;SDS011;5010;45.080;7.634;2024-03-06T15:48:51;109.47;;;48.75;;
9942;SDS011;5010;45.080;7.634;2024-03-06T15:51:20;109.72;;;46.78;;
9942;SDS011;5010;45.080;7.634;2024-03-06T15:53:48;111.47;;;50.97;;
9942;SDS011;5010;45.080;7.634;2024-03-06T15:56:18;161.50;;;153.75;;
9942;SDS011;5010;45.080;7.634;2024-03-06T15:58:46;113.03;;;63.00;;
9942;SDS011;5010;45.080;7.634;2024-03-06T16:01:14;111.07;;;54.28;;
9942;SDS011;5010;45.080;7.634;2024-03-06T16:03:42;106.45;;;40.00;;
9942;SDS011;5010;45.080;7.634;2024-03-06T16:06:10;107.78;;;42.42;;
9942;SDS011;5010;45.080;7.634;2024-03-06T16:08:39;107.05;;;42.40;;
9942;SDS011;5010;45.080;7.634;2024-03-06T16:11:07;108.18;;;46.25;;
9942;SDS011;5010;45.080;7.634;2024-03-06T16:13:35;108.80;;;44.30;;
9942;SDS011;5010;45.080;7.634;2024-03-06T16:16:03;107.57;;;46.05;;
9942;SDS011;5010;45.080;7.634;2024-03-06T16:18:31;108.00;;;48.55;;
9942;SDS011;5010;45.080;7.634;2024-03-06T16:20:59;105.53;;;42.17;;
9942;SDS011;5010;45.080;7.634;2024-03-06T16:23:27;104.25;;;40.88;;
9942;SDS011;5010;45.080;7.634;2024-03-06T16:25:57;106.97;;;46.53;;
9942;SDS011;5010;45.080;7.634;2024-03-06T16:28:24;107.70;;;54.13;;
9942;SDS011;5010;45.080;7.634;2024-03-06T16:30:52;106.30;;;53.20;;
9942;SDS011;5010;45.080;7.634;2024-03-06T16:33:20;106.22;;;53.55;;
9942;SDS011;5010;45.080;7.634;2024-03-06T16:35:47;104.47;;;47.55;;
9942;SDS011;5010;45.080;7.634;2024-03-06T16:38:15;99.60;;;37.45;;
9942;SDS011;5010;45.080;7.634;2024-03-06T16:40:44;103.63;;;40.13;;
9942;SDS011;5010;45.080;7.634;2024-03-06T16:43:14;110.53;;;77.72;;
9942;SDS011;5010;45.080;7.634;2024-03-06T16:45:42;105.15;;;64.65;;
9942;SDS011;5010;45.080;7.634;2024-03-06T16:48:10;134.35;;;125.15;;
9942;SDS011;5010;45.080;7.634;2024-03-06T16:50:39;93.85;;;22.83;;
9942;SDS011;5010;45.080;7.634;2024-03-06T16:53:07;93.15;;;18.92;;
9942;SDS011;5010;45.080;7.634;2024-03-06T16:55:34;92.60;;;22.77;;
9942;SDS011;5010;45.080;7.634;2024-03-06T16:58:02;97.60;;;31.85;;
9942;SDS011;5010;45.080;7.634;2024-03-06T17:00:32;96.45;;;47.95;;
9942;SDS011;5010;45.080;7.634;2024-03-06T17:02:59;109.05;;;38.33;;
9942;SDS011;5010;45.080;7.634;2024-03-06T17:05:27;90.78;;;34.17;;
9942;SDS011;5010;45.080;7.634;2024-03-06T17:07:55;86.97;;;45.25;;
9942;SDS011;5010;45.080;7.634;2024-03-06T17:10:22;75.80;;;17.80;;
9942;SDS011;5010;45.080;7.634;2024-03-06T17:12:50;77.15;;;23.45;;
9942;SDS011;5010;45.080;7.634;2024-03-06T17:15:19;70.53;;;15.00;;
9942;SDS011;5010;45.080;7.634;2024-03-06T17:17:49;64.47;;;7.85;;
9942;SDS011;5010;45.080;7.634;2024-03-06T17:20:16;66.60;;;13.85;;
9942;SDS011;5010;45.080;7.634;2024-03-06T17:22:45;64.15;;;9.70;;
9942;SDS011;5010;45.080;7.634;2024-03-06T17:25:13;58.15;;;6.78;;
9942;SDS011;5010;45.080;7.634;2024-03-06T17:27:43;58.80;;;5.35;;
9942;SDS011;5010;45.080;7.634;2024-03-06T17:30:11;58.90;;;5.55;;
9942;SDS011;5010;45.080;7.634;2024-03-06T17:32:40;55.75;;;3.50;;
9942;SDS011;5010;45.080;7.634;2024-03-06T17:35:10;56.83;;;3.88;;
9942;SDS011;5010;45.080;7.634;2024-03-06T17:37:37;55.45;;;4.40;;
9942;SDS011;5010;45.080;7.634;2024-03-06T17:40:06;61.00;;;12.88;;
9942;SDS011;5010;45.080;7.634;2024-03-06T17:42:36;56.35;;;3.47;;
9942;SDS011;5010;45.080;7.634;2024-03-06T17:45:05;55.30;;;3.20;;
9942;SDS011;5010;45.080;7.634;2024-03-06T17:47:33;53.75;;;2.13;;
9942;SDS011;5010;45.080;7.634;2024-03-06T17:50:01;54.92;;;4.63;;
9942;SDS011;5010;45.080;7.634;2024-03-06T17:52:31;56.85;;;5.15;;
9942;SDS011;5010;45.080;7.634;2024-03-06T17:54:59;58.63;;;3.60;;
9942;SDS011;5010;45.080;7.634;2024-03-06T17:57:26;53.78;;;3.72;;
9942;SDS011;5010;45.080;7.634;2024-03-06T17:59:54;53.72;;;2.90;;
9942;SDS011;5010;45.080;7.634;2024-03-06T18:02:22;61.80;;;6.22;;
9942;SDS011;5010;45.080;7.634;2024-03-06T18:04:50;57.03;;;5.10;;
9942;SDS011;5010;45.080;7.634;2024-03-06T18:07:17;64.15;;;11.13;;
9942;SDS011;5010;45.080;7.634;2024-03-06T18:09:47;60.08;;;7.43;;
9942;SDS011;5010;45.080;7.634;2024-03-06T18:12:17;54.92;;;2.90;;
9942;SDS011;5010;45.080;7.634;2024-03-06T18:14:44;55.40;;;3.20;;
9942;SDS011;5010;45.080;7.634;2024-03-06T18:17:12;60.30;;;11.45;;
9942;SDS011;5010;45.080;7.634;2024-03-06T18:19:40;57.45;;;7.32;;
9942;SDS011;5010;45.080;7.634;2024-03-06T18:22:08;51.35;;;1.92;;
9942;SDS011;5010;45.080;7.634;2024-03-06T18:24:35;52.50;;;2.42;;
9942;SDS011;5010;45.080;7.634;2024-03-06T18:27:05;51.85;;;4.28;;
9942;SDS011;5010;45.080;7.634;2024-03-06T18:29:33;49.55;;;2.00;;
9942;SDS011;5010;45.080;7.634;2024-03-06T18:32:00;49.20;;;2.22;;
9942;SDS011;5010;45.080;7.634;2024-03-06T18:34:30;49.40;;;2.17;;
9942;SDS011;5010;45.080;7.634;2024-03-06T18:36:59;52.90;;;2.25;;
9942;SDS011;5010;45.080;7.634;2024-03-06T18:39:28;52.30;;;2.30;;
9942;SDS011;5010;45.080;7.634;2024-03-06T18:42:07;54.25;;;2.80;;
9942;SDS011;5010;45.080;7.634;2024-03-06T18:44:34;52.40;;;2.78;;
9942;SDS011;5010;45.080;7.634;2024-03-06T18:47:04;51.08;;;2.05;;
9942;SDS011;5010;45.080;7.634;2024-03-06T18:49:33;55.72;;;2.45;;
9942;SDS011;5010;45.080;7.634;2024-03-06T18:52:01;54.22;;;2.40;;
9942;SDS011;5010;45.080;7.634;2024-03-06T18:54:29;53.97;;;2.30;;
9942;SDS011;5010;45.080;7.634;2024-03-06T18:56:57;52.50;;;2.92;;
9942;SDS011;5010;45.080;7.634;2024-03-06T18:59:26;54.65;;;2.72;;
9942;SDS011;5010;45.080;7.634;2024-03-06T19:01:54;52.30;;;2.30;;
9942;SDS011;5010;45.080;7.634;2024-03-06T19:04:22;53.58;;;2.92;;
9942;SDS011;5010;45.080;7.634;2024-03-06T19:06:50;50.20;;;2.20;;
9942;SDS011;5010;45.080;7.634;2024-03-06T19:09:18;54.35;;;3.40;;
9942;SDS011;5010;45.080;7.634;2024-03-06T19:11:47;48.78;;;2.08;;
9942;SDS011;5010;45.080;7.634;2024-03-06T19:14:18;48.75;;;3.08;;
9942;SDS011;5010;45.080;7.634;2024-03-06T19:16:48;48.67;;;2.75;;
9942;SDS011;5010;45.080;7.634;2024-03-06T19:19:17;50.65;;;2.20;;
9942;SDS011;5010;45.080;7.634;2024-03-06T19:21:45;49.63;;;2.47;;
9942;SDS011;5010;45.080;7.634;2024-03-06T19:24:16;54.15;;;3.92;;
9942;SDS011;5010;45.080;7.634;2024-03-06T19:26:46;57.72;;;3.45;;
9942;SDS011;5010;45.080;7.634;2024-03-06T19:29:14;55.75;;;2.60;;
9942;SDS011;5010;45.080;7.634;2024-03-06T19:31:41;54.65;;;2.40;;
9942;SDS011;5010;45.080;7.634;2024-03-06T19:34:13;57.83;;;4.35;;
9942;SDS011;5010;45.080;7.634;2024-03-06T19:36:42;54.75;;;2.20;;
9942;SDS011;5010;45.080;7.634;2024-03-06T19:39:13;53.25;;;1.90;;
9942;SDS011;5010;45.080;7.634;2024-03-06T19:41:40;55.30;;;6.50;;
9942;SDS011;5010;45.080;7.634;2024-03-06T19:44:09;55.75;;;3.10;;
9942;SDS011;5010;45.080;7.634;2024-03-06T19:46:36;56.55;;;2.65;;
9942;SDS011;5010;45.080;7.634;2024-03-06T19:49:04;54.50;;;2.50;;
9942;SDS011;5010;45.080;7.634;2024-03-06T19:51:34;53.30;;;2.30;;
9942;SDS011;5010;45.080;7.634;2024-03-06T20:10:27;78.68;;;17.23;;
9942;SDS011;5010;45.080;7.634;2024-03-06T20:12:54;62.45;;;8.75;;
9942;SDS011;5010;45.080;7.634;2024-03-06T20:15:27;65.70;;;12.55;;
9942;SDS011;5010;45.080;7.634;2024-03-06T20:17:55;80.95;;;23.42;;
9942;SDS011;5010;45.080;7.634;2024-03-06T20:20:22;75.10;;;17.33;;
9942;SDS011;5010;45.080;7.634;2024-03-06T20:22:50;65.05;;;8.27;;
9942;SDS011;5010;45.080;7.634;2024-03-06T20:25:21;66.80;;;8.38;;
9942;SDS011;5010;45.080;7.634;2024-03-06T20:27:51;76.45;;;18.50;;
9942;SDS011;5010;45.080;7.634;2024-03-06T20:30:18;67.75;;;13.00;;
9942;SDS011;5010;45.080;7.634;2024-03-06T20:32:47;83.15;;;23.98;;
9942;SDS011;5010;45.080;7.634;2024-03-06T20:35:15;77.80;;;14.93;;
9942;SDS011;5010;45.080;7.634;2024-03-06T20:37:45;79.05;;;14.70;;
9942;SDS011;5010;45.080;7.634;2024-03-06T20:40:13;67.70;;;7.50;;
9942;SDS011;5010;45.080;7.634;2024-03-06T20:42:41;70.32;;;10.77;;
9942;SDS011;5010;45.080;7.634;2024-03-06T20:45:11;68.80;;;9.23;;
9942;SDS011;5010;45.080;7.634;2024-03-06T20:47:39;74.22;;;14.23;;
9942;SDS011;5010;45.080;7.634;2024-03-06T20:50:07;71.70;;;8.60;;
9942;SDS011;5010;45.080;7.634;2024-03-06T20:52:35;68.03;;;5.55;;
9942;SDS011;5010;45.080;7.634;2024-03-06T20:55:04;64.28;;;5.15;;
9942;SDS011;5010;45.080;7.634;2024-03-06T20:57:32;62.72;;;4.35;;
9942;SDS011;5010;45.080;7.634;2024-03-06T21:00:00;65.20;;;6.35;;
9942;SDS011;5010;45.080;7.634;2024-03-06T21:02:30;63.28;;;5.03;;
9942;SDS011;5010;45.080;7.634;2024-03-06T21:04:57;64.55;;;4.03;;
9942;SDS011;5010;45.080;7.634;2024-03-06T21:07:24;62.83;;;4.47;;
9942;SDS011;5010;45.080;7.634;2024-03-06T21:09:52;64.32;;;5.10;;
9942;SDS011;5010;45.080;7.634;2024-03-06T21:12:20;62.70;;;5.13;;
9942;SDS011;5010;45.080;7.634;2024-03-06T21:14:48;62.40;;;5.30;;
9942;SDS011;5010;45.080;7.634;2024-03-06T21:17:19;61.75;;;4.60;;
9942;SDS011;5010;45.080;7.634;2024-03-06T21:19:50;58.70;;;3.53;;
9942;SDS011;5010;45.080;7.634;2024-03-06T21:22:18;61.55;;;3.90;;
9942;SDS011;5010;45.080;7.634;2024-03-06T21:24:47;60.05;;;3.60;;